Time;durP1;ratioP1;P1;durP2;ratioP2;P2;SDS_P1;SDS_P2;PMS_P1;PMS_P2;Temp;Humidity;BMP_temperature;BMP_pressure;BME280_temperature;BME280_humidity;BME280_pressure;Samples;Min_cycle;Max_cycle;Signal;HPM_P1;HPM_P2
2023/04/02 00:02:33;;;;;;;0.40;0.40;;;;;;;;;;5080937;28;20252;-85
2023/04/02 00:05:50;;;;;;;0.55;0.55;;;;;;;;;;5079292;28;20304;-87
2023/04/02 00:08:24;;;;;;;0.88;0.60;;;;;;;;;;5078099;28;20231;-85
2023/04/02 00:10:54;;;;;;;0.70;0.70;;;;;;;;;;5067903;28;20199;-86
2023/04/02 00:13:34;;;;;;;0.50;0.50;;;;;;;;;;5072297;28;20217;-86
2023/04/02 00:16:05;;;;;;;0.60;0.60;;;;;;;;;;5064593;28;20197;-86
2023/04/02 00:18:34;;;;;;;0.65;0.65;;;;;;;;;;5079570;28;20211;-86
2023/04/02 00:21:12;;;;;;;0.77;0.77;;;;;;;;;;5064067;28;20232;-85
2023/04/02 00:23:42;;;;;;;0.52;0.52;;;;;;;;;;5065087;28;20262;-85
2023/04/02 00:26:24;;;;;;;0.40;0.40;;;;;;;;;;5083913;28;20231;-85
2023/04/02 00:28:52;;;;;;;1.30;0.70;;;;;;;;;;5075927;28;20280;-87
2023/04/02 00:31:20;;;;;;;0.60;0.60;;;;;;;;;;5068799;28;20208;-86
2023/04/02 00:33:49;;;;;;;0.40;0.40;;;;;;;;;;5068455;28;20296;-86
2023/04/02 00:36:20;;;;;;;0.65;0.65;;;;;;;;;;5079570;28;20192;-86
2023/04/02 00:38:48;;;;;;;0.60;0.60;;;;;;;;;;5079629;28;20197;-88
2023/04/02 00:41:21;;;;;;;0.60;0.60;;;;;;;;;;5068934;28;20625;-86
2023/04/02 00:43:50;;;;;;;0.82;0.82;;;;;;;;;;5080335;28;20220;-85
2023/04/02 00:46:22;;;;;;;0.60;0.60;;;;;;;;;;5067803;28;20274;-86
2023/04/02 00:48:54;;;;;;;0.70;0.70;;;;;;;;;;5067588;28;20222;-86
2023/04/02 00:51:28;;;;;;;0.60;0.60;;;;;;;;;;5066581;28;20283;-85
2023/04/02 00:53:58;;;;;;;0.70;0.70;;;;;;;;;;5080771;28;20216;-87
2023/04/02 00:56:28;;;;;;;0.70;0.70;;;;;;;;;;5077301;28;20228;-87
2023/04/02 00:58:57;;;;;;;0.80;0.80;;;;;;;;;;5080069;28;20626;-87
2023/04/02 01:01:28;;;;;;;0.70;0.70;;;;;;;;;;5076513;28;20197;-87
2023/04/02 01:04:00;;;;;;;0.60;0.60;;;;;;;;;;5064034;28;20952;-86
2023/04/02 01:06:30;;;;;;;0.68;0.68;;;;;;;;;;5077380;28;20299;-86
2023/04/02 01:09:24;;;;;;;0.80;0.80;;;;;;;;;;5074210;28;20200;-85
2023/04/02 01:12:15;;;;;;;0.93;0.93;;;;;;;;;;5070806;28;20244;-86
2023/04/02 01:14:52;;;;;;;0.60;0.60;;;;;;;;;;5069891;28;20201;-87
2023/04/02 01:17:37;;;;;;;0.50;0.50;;;;;;;;;;5066450;28;20649;-87
2023/04/02 01:20:49;;;;;;;0.88;0.88;;;;;;;;;;5072222;28;20696;-85
2023/04/02 01:23:24;;;;;;;0.63;0.63;;;;;;;;;;5080730;28;20307;-86
2023/04/02 01:25:57;;;;;;;0.73;0.73;;;;;;;;;;5074824;28;20646;-87
2023/04/02 01:28:28;;;;;;;0.73;0.73;;;;;;;;;;5085417;28;20209;-87
2023/04/02 01:30:58;;;;;;;0.88;0.88;;;;;;;;;;5086430;28;20279;-87
2023/04/02 01:33:30;;;;;;;0.60;0.60;;;;;;;;;;5079992;28;20307;-86
2023/04/02 01:36:04;;;;;;;0.47;0.47;;;;;;;;;;5073576;28;20248;-85
2023/04/02 01:38:36;;;;;;;0.50;0.50;;;;;;;;;;5073774;28;20207;-87
2023/04/02 01:41:08;;;;;;;0.60;0.60;;;;;;;;;;5074254;28;20623;-86
2023/04/02 01:43:41;;;;;;;0.55;0.55;;;;;;;;;;5080847;28;20252;-85
2023/04/02 01:46:28;;;;;;;0.85;0.73;;;;;;;;;;5081004;28;20193;-86
2023/04/02 01:48:56;;;;;;;0.80;0.80;;;;;;;;;;5080976;28;20292;-87
2023/04/02 01:51:29;;;;;;;0.63;0.63;;;;;;;;;;5087629;28;20205;-85
2023/04/02 01:53:58;;;;;;;0.70;0.70;;;;;;;;;;5080705;28;20608;-85
2023/04/02 01:56:27;;;;;;;0.60;0.60;;;;;;;;;;5077264;28;20636;-85
2023/04/02 01:58:56;;;;;;;1.20;1.10;;;;;;;;;;5071883;28;20198;-86
2023/04/02 02:01:27;;;;;;;0.60;0.60;;;;;;;;;;5074063;28;20646;-85
2023/04/02 02:03:55;;;;;;;0.82;0.82;;;;;;;;;;5071973;28;20222;-86
2023/04/02 02:06:23;;;;;;;0.80;0.80;;;;;;;;;;5083733;28;20200;-87
2023/04/02 02:08:53;;;;;;;0.70;0.70;;;;;;;;;;5069160;28;20319;-85
2023/04/02 02:11:24;;;;;;;0.52;0.52;;;;;;;;;;5063431;28;20293;-86
2023/04/02 02:13:55;;;;;;;0.38;0.38;;;;;;;;;;5078289;28;20227;-86
2023/04/02 02:16:26;;;;;;;0.80;0.80;;;;;;;;;;5083758;28;20283;-85
2023/04/02 02:18:58;;;;;;;0.68;0.68;;;;;;;;;;5076718;28;20238;-86
2023/04/02 02:21:37;;;;;;;0.88;0.88;;;;;;;;;;5072218;28;20723;-87
2023/04/02 02:24:05;;;;;;;0.85;0.80;;;;;;;;;;5077727;28;20672;-86
2023/04/02 02:26:34;;;;;;;0.63;0.63;;;;;;;;;;5078761;28;20297;-85
2023/04/02 02:29:04;;;;;;;0.80;0.80;;;;;;;;;;5079393;28;20632;-86
2023/04/02 02:31:33;;;;;;;0.60;0.60;;;;;;;;;;5064092;28;20234;-87
2023/04/02 02:34:05;;;;;;;0.70;0.70;;;;;;;;;;5080779;28;20256;-85
2023/04/02 02:36:35;;;;;;;0.60;0.60;;;;;;;;;;5077774;28;20251;-85
2023/04/02 02:39:07;;;;;;;0.75;0.75;;;;;;;;;;5084264;28;20717;-85
2023/04/02 02:41:40;;;;;;;0.60;0.60;;;;;;;;;;5074860;28;21057;-86
2023/04/02 02:44:14;;;;;;;0.65;0.65;;;;;;;;;;5076211;28;20258;-86
2023/04/02 02:46:46;;;;;;;0.70;0.70;;;;;;;;;;5079723;28;20196;-86
2023/04/02 02:49:19;;;;;;;0.70;0.70;;;;;;;;;;5069543;28;20764;-87
2023/04/02 02:51:51;;;;;;;0.70;0.70;;;;;;;;;;5082130;28;20680;-84
2023/04/02 02:54:19;;;;;;;0.75;0.75;;;;;;;;;;5091324;28;20211;-86
2023/04/02 02:56:52;;;;;;;0.70;0.70;;;;;;;;;;5079666;28;20258;-85
2023/04/02 02:59:21;;;;;;;0.90;0.70;;;;;;;;;;5073051;28;20193;-86
2023/04/02 03:01:49;;;;;;;0.70;0.70;;;;;;;;;;5072280;28;20228;-86
2023/04/02 03:04:22;;;;;;;0.70;0.70;;;;;;;;;;5069311;28;20228;-87
2023/04/02 03:06:52;;;;;;;0.68;0.68;;;;;;;;;;5053405;28;20269;-85
2023/04/02 03:09:28;;;;;;;0.80;0.80;;;;;;;;;;5068437;28;20224;-86
2023/04/02 03:12:02;;;;;;;0.88;0.80;;;;;;;;;;5075788;28;20197;-86
2023/04/02 03:14:35;;;;;;;0.60;0.60;;;;;;;;;;5090692;28;20184;-86
2023/04/02 03:17:09;;;;;;;0.68;0.68;;;;;;;;;;5073102;28;20272;-86
2023/04/02 03:19:43;;;;;;;0.80;0.80;;;;;;;;;;5071244;28;20212;-87
2023/04/02 03:22:18;;;;;;;0.73;0.73;;;;;;;;;;5077307;28;20227;-87
2023/04/02 03:24:53;;;;;;;0.68;0.68;;;;;;;;;;5073490;28;20275;-85
2023/04/02 03:27:24;;;;;;;0.70;0.70;;;;;;;;;;5053003;28;20296;-87
2023/04/02 03:30:05;;;;;;;1.85;1.02;;;;;;;;;;5064838;28;20267;-86
2023/04/02 03:32:37;;;;;;;0.77;0.77;;;;;;;;;;5064614;28;20256;-86
2023/04/02 03:35:18;;;;;;;0.60;0.60;;;;;;;;;;5067023;28;20237;-86
2023/04/02 03:37:51;;;;;;;1.15;1.15;;;;;;;;;;5077180;28;20235;-86
2023/04/02 03:40:24;;;;;;;0.90;0.90;;;;;;;;;;5083728;28;20193;-85
2023/04/02 03:42:55;;;;;;;0.70;0.70;;;;;;;;;;5069567;28;20244;-85
2023/04/02 03:45:25;;;;;;;0.73;0.73;;;;;;;;;;5077151;28;20212;-86
2023/04/02 03:47:56;;;;;;;0.80;0.80;;;;;;;;;;5061423;28;20284;-86
2023/04/02 03:50:29;;;;;;;0.80;0.80;;;;;;;;;;5071998;28;20728;-85
2023/04/02 03:52:58;;;;;;;0.82;0.82;;;;;;;;;;5072322;28;20586;-86
2023/04/02 03:55:28;;;;;;;0.70;0.70;;;;;;;;;;5075859;28;20280;-85
2023/04/02 03:58:03;;;;;;;0.82;0.82;;;;;;;;;;5086536;28;20283;-85
2023/04/02 04:00:37;;;;;;;0.70;0.70;;;;;;;;;;5066278;28;20236;-85
2023/04/02 04:03:10;;;;;;;0.82;0.82;;;;;;;;;;5076400;28;20594;-86
2023/04/02 04:05:47;;;;;;;0.70;0.70;;;;;;;;;;5084161;28;20688;-84
2023/04/02 04:08:17;;;;;;;1.27;1.23;;;;;;;;;;5084838;28;20203;-86
2023/04/02 04:10:45;;;;;;;0.90;0.90;;;;;;;;;;5074417;28;20284;-86
2023/04/02 04:13:17;;;;;;;0.70;0.70;;;;;;;;;;5061593;28;20579;-86
2023/04/02 04:15:51;;;;;;;0.70;0.70;;;;;;;;;;5079463;28;20226;-85
2023/04/02 04:18:33;;;;;;;1.10;1.08;;;;;;;;;;5080290;28;20196;-86
2023/04/02 04:21:05;;;;;;;0.90;0.90;;;;;;;;;;5087401;28;20706;-85
2023/04/02 04:23:35;;;;;;;1.05;1.05;;;;;;;;;;5075520;28;20220;-85
2023/04/02 04:26:09;;;;;;;0.80;0.80;;;;;;;;;;5081595;28;20196;-85
2023/04/02 04:28:57;;;;;;;1.00;1.00;;;;;;;;;;5075505;28;20209;-86
2023/04/02 04:31:32;;;;;;;1.50;1.02;;;;;;;;;;5073492;28;20270;-85
2023/04/02 04:34:05;;;;;;;1.42;1.35;;;;;;;;;;5074946;28;20228;-83
2023/04/02 04:36:40;;;;;;;1.20;1.20;;;;;;;;;;5083737;28;20185;-84
2023/04/02 04:39:13;;;;;;;1.52;1.45;;;;;;;;;;5075585;28;20185;-84
2023/04/02 04:41:42;;;;;;;1.60;1.50;;;;;;;;;;5075633;28;20574;-82
2023/04/02 04:44:16;;;;;;;1.50;1.40;;;;;;;;;;5075037;28;20300;-83
2023/04/02 04:46:47;;;;;;;1.60;1.50;;;;;;;;;;5055764;28;20536;-84
2023/04/02 04:49:18;;;;;;;1.80;1.70;;;;;;;;;;5057111;28;20313;-86
2023/04/02 04:51:50;;;;;;;1.70;1.60;;;;;;;;;;5071868;28;20551;-85
2023/04/02 04:54:19;;;;;;;2.10;1.88;;;;;;;;;;5084500;28;20188;-85
2023/04/02 04:56:49;;;;;;;3.13;1.75;;;;;;;;;;5075939;28;20205;-83
2023/04/02 04:59:21;;;;;;;2.10;1.95;;;;;;;;;;5075320;28;20272;-83
2023/04/02 05:01:53;;;;;;;1.95;1.80;;;;;;;;;;5074702;28;20182;-83
2023/04/02 05:04:25;;;;;;;2.00;1.80;;;;;;;;;;5085231;28;20192;-83
2023/04/02 05:06:57;;;;;;;1.88;1.77;;;;;;;;;;5095367;28;20625;-82
2023/04/02 05:09:29;;;;;;;2.00;1.90;;;;;;;;;;5095192;28;20295;-83
2023/04/02 05:12:05;;;;;;;2.30;2.10;;;;;;;;;;5095403;28;20189;-83
2023/04/02 05:14:37;;;;;;;2.70;2.15;;;;;;;;;;5079127;28;20609;-83
2023/04/02 05:17:07;;;;;;;2.53;2.33;;;;;;;;;;5090936;28;20276;-83
2023/04/02 05:19:39;;;;;;;2.33;2.10;;;;;;;;;;5095201;28;20207;-83
2023/04/02 05:22:19;;;;;;;2.58;2.38;;;;;;;;;;5089403;28;20304;-83
2023/04/02 05:24:56;;;;;;;2.70;2.30;;;;;;;;;;5074860;28;20181;-84
2023/04/02 05:27:37;;;;;;;1.70;1.60;;;;;;;;;;5064263;28;20308;-83
2023/04/02 05:30:13;;;;;;;4.78;2.20;;;;;;;;;;5075115;28;20201;-83
2023/04/02 05:32:46;;;;;;;1.70;1.60;;;;;;;;;;5074608;28;20220;-83
2023/04/02 05:35:19;;;;;;;1.55;1.45;;;;;;;;;;5074668;28;20276;-83
2023/04/02 05:37:48;;;;;;;1.80;1.70;;;;;;;;;;5069480;28;20201;-84
2023/04/02 05:40:22;;;;;;;3.00;2.20;;;;;;;;;;5071495;28;20193;-84
2023/04/02 05:42:54;;;;;;;2.05;1.85;;;;;;;;;;5087361;28;20220;-84
2023/04/02 05:45:28;;;;;;;2.45;2.28;;;;;;;;;;5074604;28;20190;-84
2023/04/02 05:48:00;;;;;;;2.13;1.65;;;;;;;;;;5074589;28;20574;-84
2023/04/02 05:50:30;;;;;;;2.38;2.17;;;;;;;;;;5079402;28;20668;-84
2023/04/02 05:53:06;;;;;;;2.33;2.13;;;;;;;;;;5067969;28;20226;-86
2023/04/02 05:55:51;;;;;;;3.50;2.40;;;;;;;;;;5054867;28;20186;-85
2023/04/02 05:58:27;;;;;;;2.13;1.92;;;;;;;;;;5072940;28;20201;-86
2023/04/02 06:01:06;;;;;;;2.17;1.75;;;;;;;;;;5078672;28;20224;-84
2023/04/02 06:03:44;;;;;;;1.70;1.60;;;;;;;;;;5066249;28;20216;-84
2023/04/02 06:06:19;;;;;;;1.98;1.80;;;;;;;;;;5076330;28;20189;-83
2023/04/02 06:08:55;;;;;;;1.20;1.13;;;;;;;;;;5083211;28;20616;-84
2023/04/02 06:11:27;;;;;;;2.90;1.67;;;;;;;;;;5093221;28;20216;-83
2023/04/02 06:13:55;;;;;;;2.03;1.73;;;;;;;;;;5093841;28;20311;-83
2023/04/02 06:16:29;;;;;;;1.65;1.55;;;;;;;;;;5092798;28;20287;-83
2023/04/02 06:18:57;;;;;;;2.13;1.95;;;;;;;;;;5085541;28;20199;-84
2023/04/02 06:21:25;;;;;;;1.80;1.70;;;;;;;;;;5094109;28;20210;-83
2023/04/02 06:23:57;;;;;;;2.42;2.22;;;;;;;;;;5093657;28;20228;-83
2023/04/02 06:26:27;;;;;;;1.90;1.65;;;;;;;;;;5094056;28;20290;-84
2023/04/02 06:29:01;;;;;;;1.65;1.55;;;;;;;;;;5094088;28;20733;-83
2023/04/02 06:31:36;;;;;;;1.75;1.65;;;;;;;;;;5094250;28;20215;-84
2023/04/02 06:34:05;;;;;;;5.50;2.00;;;;;;;;;;5093689;28;20223;-82
2023/04/02 06:36:34;;;;;;;1.80;1.70;;;;;;;;;;5093809;28;20250;-82
2023/04/02 06:39:08;;;;;;;1.80;1.70;;;;;;;;;;5078071;28;20296;-82
2023/04/02 06:41:35;;;;;;;1.92;1.73;;;;;;;;;;5065418;28;20196;-82
2023/04/02 06:44:06;;;;;;;2.00;1.90;;;;;;;;;;5073134;28;20264;-82
2023/04/02 06:46:39;;;;;;;1.50;1.40;;;;;;;;;;5073379;28;20199;-83
2023/04/02 06:49:17;;;;;;;1.40;1.30;;;;;;;;;;5073343;28;20264;-82
2023/04/02 06:51:46;;;;;;;1.65;1.55;;;;;;;;;;5053193;28;20642;-83
2023/04/02 06:54:16;;;;;;;1.70;1.60;;;;;;;;;;5055562;28;20265;-83
2023/04/02 06:56:47;;;;;;;1.70;1.60;;;;;;;;;;5062020;28;20295;-82
2023/04/02 06:59:14;;;;;;;1.75;1.65;;;;;;;;;;5072856;28;20268;-82
2023/04/02 07:01:47;;;;;;;1.70;1.60;;;;;;;;;;5072828;28;20745;-83
2023/04/02 07:04:15;;;;;;;1.67;1.58;;;;;;;;;;5071315;28;20232;-83
2023/04/02 07:06:43;;;;;;;1.52;1.42;;;;;;;;;;5085884;28;20279;-84
2023/04/02 07:09:10;;;;;;;1.63;1.52;;;;;;;;;;5082546;28;20227;-83
2023/04/02 07:11:39;;;;;;;3.15;2.03;;;;;;;;;;5060334;28;20223;-83
2023/04/02 07:14:07;;;;;;;2.05;1.50;;;;;;;;;;5053054;28;20272;-83
2023/04/02 07:16:35;;;;;;;1.65;1.45;;;;;;;;;;5060033;28;20304;-83
2023/04/02 07:19:03;;;;;;;1.90;1.50;;;;;;;;;;5092788;28;20584;-82
2023/04/02 07:21:31;;;;;;;1.83;1.73;;;;;;;;;;5066874;28;20201;-83
2023/04/02 07:23:59;;;;;;;1.15;1.15;;;;;;;;;;5073285;28;20248;-83
2023/04/02 07:26:27;;;;;;;1.38;1.30;;;;;;;;;;5066700;28;20205;-82
2023/04/02 07:28:57;;;;;;;2.38;1.52;;;;;;;;;;5092679;28;20606;-83
2023/04/02 07:31:27;;;;;;;1.35;1.25;;;;;;;;;;5092714;28;20230;-84
2023/04/02 07:33:58;;;;;;;1.58;1.10;;;;;;;;;;5081879;28;20208;-82
2023/04/02 07:36:27;;;;;;;1.30;1.20;;;;;;;;;;5075234;28;20212;-88
2023/04/02 07:38:56;;;;;;;1.40;1.30;;;;;;;;;;5071481;28;20658;-87
2023/04/02 07:41:23;;;;;;;1.30;1.25;;;;;;;;;;5077029;28;20201;-87
2023/04/02 07:43:51;;;;;;;1.17;1.17;;;;;;;;;;5078012;28;20296;-83
2023/04/02 07:46:20;;;;;;;1.40;1.30;;;;;;;;;;5077126;28;20228;-85
2023/04/02 07:48:48;;;;;;;1.20;1.20;;;;;;;;;;5082369;28;20288;-84
2023/04/02 07:51:17;;;;;;;1.30;1.20;;;;;;;;;;5072243;28;20260;-84
2023/04/02 07:53:48;;;;;;;1.30;1.23;;;;;;;;;;5079677;28;20689;-85
2023/04/02 07:56:18;;;;;;;1.05;1.05;;;;;;;;;;5064734;28;20701;-86
2023/04/02 07:58:46;;;;;;;1.25;1.20;;;;;;;;;;5077369;28;20651;-87
2023/04/02 08:01:22;;;;;;;1.02;1.02;;;;;;;;;;5073452;28;20205;-86
2023/04/02 08:03:50;;;;;;;1.58;1.45;;;;;;;;;;5074578;28;20236;-86
2023/04/02 08:06:18;;;;;;;1.30;1.20;;;;;;;;;;5074037;28;20196;-87
2023/04/02 08:08:45;;;;;;;1.30;1.10;;;;;;;;;;5072531;28;20283;-85
2023/04/02 08:11:13;;;;;;;1.10;1.10;;;;;;;;;;5073732;28;20320;-86
2023/04/02 08:13:41;;;;;;;1.38;1.27;;;;;;;;;;5073715;28;20229;-86
2023/04/02 08:16:09;;;;;;;1.15;1.15;;;;;;;;;;5073119;28;20288;-86
2023/04/02 08:18:38;;;;;;;0.98;0.98;;;;;;;;;;5072481;28;20628;-87
2023/04/02 08:21:07;;;;;;;1.50;1.40;;;;;;;;;;5073731;28;20215;-87
2023/04/02 08:23:35;;;;;;;1.52;1.40;;;;;;;;;;5076014;28;20278;-87
2023/04/02 08:26:03;;;;;;;1.20;1.10;;;;;;;;;;5076125;28;20593;-87
2023/04/02 08:28:31;;;;;;;16.17;14.40;;;;;;;;;;5075801;28;20717;-86
2023/04/02 08:30:58;;;;;;;5.03;3.33;;;;;;;;;;5076809;28;20252;-88
2023/04/02 08:33:26;;;;;;;4.20;2.60;;;;;;;;;;5077128;28;20747;-86
2023/04/02 08:35:55;;;;;;;1.58;1.40;;;;;;;;;;5076869;28;20203;-87
2023/04/02 08:38:23;;;;;;;1.83;1.73;;;;;;;;;;5077355;28;20204;-88
2023/04/02 08:40:52;;;;;;;1.27;1.17;;;;;;;;;;5077773;28;20205;-86
2023/04/02 08:43:45;;;;;;;1.40;1.20;;;;;;;;;;5062912;28;20658;-86
2023/04/02 08:46:17;;;;;;;1.60;1.50;;;;;;;;;;5059236;28;20190;-86
2023/04/02 08:48:49;;;;;;;1.00;1.00;;;;;;;;;;5059725;28;20308;-86
2023/04/02 08:51:24;;;;;;;1.60;1.33;;;;;;;;;;5057942;28;20221;-87
2023/04/02 08:53:55;;;;;;;0.98;0.98;;;;;;;;;;5058570;28;20221;-88
2023/04/02 08:56:29;;;;;;;1.13;1.10;;;;;;;;;;5059111;28;20601;-87
2023/04/02 08:58:59;;;;;;;2.53;1.50;;;;;;;;;;5058918;28;20225;-87
2023/04/02 09:01:40;;;;;;;1.75;1.65;;;;;;;;;;5058981;28;20182;-86
2023/04/02 09:04:15;;;;;;;1.58;1.45;;;;;;;;;;5058639;28;20229;-87
2023/04/02 09:06:44;;;;;;;1.48;1.38;;;;;;;;;;5058378;28;20276;-86
2023/04/02 09:09:13;;;;;;;1.35;1.25;;;;;;;;;;5058686;28;20722;-87
2023/04/02 09:11:48;;;;;;;1.13;1.08;;;;;;;;;;5058879;28;20225;-86
2023/04/02 09:14:19;;;;;;;1.17;1.17;;;;;;;;;;5079124;28;20291;-87
2023/04/02 09:16:50;;;;;;;1.10;1.00;;;;;;;;;;5078062;28;20209;-87
2023/04/02 09:19:22;;;;;;;1.10;1.00;;;;;;;;;;5072818;28;20746;-86
2023/04/02 09:22:05;;;;;;;3.50;1.25;;;;;;;;;;5057653;28;20296;-87
2023/04/02 09:24:32;;;;;;;1.85;1.75;;;;;;;;;;5058335;28;20206;-88
2023/04/02 09:27:00;;;;;;;1.63;1.35;;;;;;;;;;5058575;28;20296;-87
2023/04/02 09:29:41;;;;;;;1.67;1.30;;;;;;;;;;5058222;28;20296;-87
2023/04/02 09:32:25;;;;;;;1.65;1.50;;;;;;;;;;5058698;28;20312;-87
2023/04/02 09:35:11;;;;;;;2.00;1.40;;;;;;;;;;5057993;28;20292;-87
2023/04/02 09:37:42;;;;;;;2.17;1.63;;;;;;;;;;5057637;28;20184;-86
2023/04/02 09:40:34;;;;;;;1.42;1.35;;;;;;;;;;5059066;28;20186;-87
2023/04/02 09:43:12;;;;;;;1.88;1.52;;;;;;;;;;5047394;28;20253;-86
2023/04/02 09:45:41;;;;;;;1.42;1.10;;;;;;;;;;5061670;28;20233;-88
2023/04/02 09:48:25;;;;;;;2.70;1.55;;;;;;;;;;5062024;28;20229;-87
2023/04/02 09:51:15;;;;;;;2.75;1.30;;;;;;;;;;5059887;28;20680;-87
2023/04/02 09:53:46;;;;;;;1.73;1.20;;;;;;;;;;5058598;28;20221;-87
2023/04/02 09:56:17;;;;;;;1.30;1.20;;;;;;;;;;5057436;28;20186;-87
2023/04/02 09:58:46;;;;;;;1.50;1.40;;;;;;;;;;5058383;28;20265;-87
2023/04/02 10:01:30;;;;;;;1.20;1.08;;;;;;;;;;5062414;28;20196;-86
2023/04/02 10:03:58;;;;;;;0.98;0.98;;;;;;;;;;5060968;28;20266;-87
2023/04/02 10:06:28;;;;;;;1.42;1.30;;;;;;;;;;5058163;28;20228;-86
2023/04/02 10:08:57;;;;;;;2.28;1.35;;;;;;;;;;5063460;28;20205;-87
2023/04/02 10:11:28;;;;;;;2.50;1.77;;;;;;;;;;5060587;28;20222;-86
2023/04/02 10:14:00;;;;;;;1.60;1.50;;;;;;;;;;5080842;28;20259;-86
2023/04/02 10:16:32;;;;;;;1.95;1.75;;;;;;;;;;5076509;28;20645;-85
2023/04/02 10:19:01;;;;;;;1.80;1.52;;;;;;;;;;5075538;28;20207;-86
2023/04/02 10:21:31;;;;;;;2.90;2.05;;;;;;;;;;5078319;28;20201;-86
2023/04/02 10:24:01;;;;;;;2.33;2.13;;;;;;;;;;5079924;28;20255;-87
2023/04/02 10:26:48;;;;;;;1.60;1.10;;;;;;;;;;5078805;28;20185;-86
2023/04/02 10:29:42;;;;;;;1.83;1.73;;;;;;;;;;5078568;28;20291;-86
2023/04/02 10:32:14;;;;;;;2.05;1.50;;;;;;;;;;5077046;28;20311;-88
2023/04/02 10:34:48;;;;;;;3.00;1.80;;;;;;;;;;5077187;28;20235;-88
2023/04/02 10:37:46;;;;;;;2.47;1.88;;;;;;;;;;5076544;28;20216;-88
2023/04/02 10:40:21;;;;;;;2.38;1.65;;;;;;;;;;5075298;28;20208;-86
2023/04/02 10:42:55;;;;;;;1.83;1.08;;;;;;;;;;5065484;28;20235;-87
2023/04/02 10:45:38;;;;;;;3.35;1.40;;;;;;;;;;5056595;28;20208;-85
2023/04/02 10:48:11;;;;;;;1.10;0.93;;;;;;;;;;5056004;28;20698;-87
2023/04/02 10:50:48;;;;;;;1.17;1.10;;;;;;;;;;5055265;28;20249;-87
2023/04/02 10:53:19;;;;;;;1.40;1.30;;;;;;;;;;5055370;28;20225;-87
2023/04/02 10:55:52;;;;;;;1.60;1.50;;;;;;;;;;5055236;28;20189;-86
2023/04/02 10:58:25;;;;;;;1.67;1.58;;;;;;;;;;5055638;28;20544;-87
2023/04/02 11:00:55;;;;;;;2.22;1.85;;;;;;;;;;5054928;28;20190;-87
2023/04/02 11:03:35;;;;;;;1.48;1.38;;;;;;;;;;5055713;28;20281;-87
2023/04/02 11:06:10;;;;;;;1.50;1.40;;;;;;;;;;5055365;28;20213;-87
2023/04/02 11:08:41;;;;;;;1.35;1.20;;;;;;;;;;5055071;28;20189;-88
2023/04/02 11:11:15;;;;;;;1.73;1.50;;;;;;;;;;5055606;28;20188;-87
2023/04/02 11:13:52;;;;;;;2.83;1.88;;;;;;;;;;5055049;28;20324;-86
2023/04/02 11:16:20;;;;;;;2.40;1.40;;;;;;;;;;5054521;28;20272;-87
2023/04/02 11:19:36;;;;;;;2.95;2.40;;;;;;;;;;5054697;28;20249;-87
2023/04/02 11:22:15;;;;;;;1.45;1.35;;;;;;;;;;5012697;28;20207;-87
2023/04/02 11:24:48;;;;;;;1.90;1.45;;;;;;;;;;5011957;28;20214;-87
2023/04/02 11:27:32;;;;;;;1.48;1.23;;;;;;;;;;5036314;28;20197;-87
2023/04/02 11:30:06;;;;;;;1.45;1.30;;;;;;;;;;5052944;28;20679;-87
2023/04/02 11:32:41;;;;;;;1.45;1.35;;;;;;;;;;5054068;28;20320;-87
2023/04/02 11:35:39;;;;;;;1.33;1.23;;;;;;;;;;5054509;28;20255;-87
2023/04/02 11:38:50;;;;;;;1.55;1.42;;;;;;;;;;5054956;28;20212;-86
2023/04/02 11:42:04;;;;;;;2.47;1.52;;;;;;;;;;5054505;28;20212;-87
2023/04/02 11:44:33;;;;;;;2.22;1.77;;;;;;;;;;5055551;28;20200;-87
2023/04/02 11:47:18;;;;;;;1.45;1.35;;;;;;;;;;5054323;28;20232;-87
2023/04/02 11:50:03;;;;;;;1.63;1.50;;;;;;;;;;5054861;28;20237;-87
2023/04/02 11:52:38;;;;;;;2.15;1.42;;;;;;;;;;5055169;28;20264;-88
2023/04/02 11:55:28;;;;;;;2.00;1.80;;;;;;;;;;5058313;28;20270;-87
2023/04/02 11:58:36;;;;;;;2.97;1.38;;;;;;;;;;5056831;28;20209;-87
2023/04/02 12:01:29;;;;;;;1.80;1.60;;;;;;;;;;5056664;28;20726;-88
2023/04/02 12:04:49;;;;;;;2.35;1.27;;;;;;;;;;5057292;28;20231;-87
2023/04/02 12:07:45;;;;;;;1.45;1.35;;;;;;;;;;5055951;28;20190;-87
2023/04/02 12:10:18;;;;;;;1.60;1.50;;;;;;;;;;5045884;28;20206;-87
2023/04/02 12:12:46;;;;;;;2.40;1.48;;;;;;;;;;5056946;28;20285;-86
2023/04/02 12:15:41;;;;;;;1.83;1.58;;;;;;;;;;5056472;28;20297;-86
2023/04/02 12:18:16;;;;;;;2.90;1.70;;;;;;;;;;5054552;28;20412;-87
2023/04/02 12:20:49;;;;;;;2.00;1.65;;;;;;;;;;5054898;28;20735;-88
2023/04/02 12:23:21;;;;;;;1.90;1.80;;;;;;;;;;5056580;28;20253;-87
2023/04/02 12:25:57;;;;;;;4.97;2.83;;;;;;;;;;5058329;28;20178;-88
2023/04/02 12:28:27;;;;;;;2.10;1.60;;;;;;;;;;5057964;28;20194;-87
2023/04/02 12:31:05;;;;;;;2.10;1.75;;;;;;;;;;5057841;28;20190;-88
2023/04/02 12:33:36;;;;;;;1.83;1.40;;;;;;;;;;5058026;28;20670;-87
2023/04/02 12:36:08;;;;;;;1.20;1.17;;;;;;;;;;5057803;28;20605;-87
2023/04/02 12:38:43;;;;;;;1.40;1.13;;;;;;;;;;5057477;28;20182;-87
2023/04/02 12:41:23;;;;;;;1.88;1.40;;;;;;;;;;5067809;28;20208;-88
2023/04/02 12:43:58;;;;;;;2.00;1.73;;;;;;;;;;5058414;28;20225;-87
2023/04/02 12:46:26;;;;;;;2.08;1.30;;;;;;;;;;5057647;28;20288;-86
2023/04/02 12:48:58;;;;;;;2.42;1.50;;;;;;;;;;5057140;28;20201;-87
2023/04/02 12:51:26;;;;;;;2.00;1.40;;;;;;;;;;5057714;28;20627;-85
2023/04/02 12:53:53;;;;;;;1.38;1.27;;;;;;;;;;5056824;28;20245;-88
2023/04/02 12:56:22;;;;;;;1.92;1.70;;;;;;;;;;5055546;28;20623;-86
2023/04/02 12:58:54;;;;;;;2.75;1.75;;;;;;;;;;5055503;28;20206;-87
2023/04/02 13:01:23;;;;;;;2.75;1.73;;;;;;;;;;5056706;28;20186;-87
2023/04/02 13:04:03;;;;;;;2.80;1.60;;;;;;;;;;5056205;28;20217;-88
2023/04/02 13:06:31;;;;;;;4.07;2.33;;;;;;;;;;5056379;28;20642;-87
2023/04/02 13:09:00;;;;;;;1.65;1.55;;;;;;;;;;5056401;28;20255;-88
2023/04/02 13:11:35;;;;;;;1.20;1.20;;;;;;;;;;5056497;28;20204;-87
2023/04/02 13:14:04;;;;;;;1.30;1.20;;;;;;;;;;5056070;28;20220;-88
2023/04/02 13:16:37;;;;;;;1.45;1.35;;;;;;;;;;5055926;28;20208;-86
2023/04/02 13:19:32;;;;;;;1.38;1.27;;;;;;;;;;5056055;28;20220;-88
2023/04/02 13:22:01;;;;;;;1.20;1.15;;;;;;;;;;5055903;28;20270;-88
2023/04/02 13:24:30;;;;;;;1.40;1.25;;;;;;;;;;5055425;28;20742;-88
2023/04/02 13:27:00;;;;;;;1.35;1.17;;;;;;;;;;5055756;28;20202;-87
2023/04/02 13:29:30;;;;;;;2.08;1.83;;;;;;;;;;5056392;28;20217;-87
2023/04/02 13:32:00;;;;;;;1.85;1.50;;;;;;;;;;5055670;28;20202;-89
2023/04/02 13:34:29;;;;;;;1.67;1.35;;;;;;;;;;5055306;28;20271;-87
2023/04/02 13:36:57;;;;;;;2.97;2.72;;;;;;;;;;5055271;28;20201;-87
2023/04/02 13:39:25;;;;;;;2.38;1.50;;;;;;;;;;5055377;28;20641;-87
2023/04/02 13:41:57;;;;;;;2.15;1.85;;;;;;;;;;5057728;28;20681;-88
2023/04/02 13:44:27;;;;;;;1.38;1.30;;;;;;;;;;5076078;28;20269;-83
2023/04/02 13:46:55;;;;;;;2.80;1.63;;;;;;;;;;5075351;28;20205;-86
2023/04/02 13:49:23;;;;;;;1.00;1.00;;;;;;;;;;5075159;28;20197;-83
2023/04/02 13:51:56;;;;;;;1.10;1.10;;;;;;;;;;5076256;28;20296;-85
2023/04/02 13:54:28;;;;;;;1.67;1.15;;;;;;;;;;5075319;28;20561;-86
2023/04/02 13:56:56;;;;;;;4.75;1.30;;;;;;;;;;5075716;28;20259;-85
2023/04/02 13:59:24;;;;;;;1.35;1.20;;;;;;;;;;5075276;28;20223;-86
2023/04/02 14:01:53;;;;;;;1.35;1.25;;;;;;;;;;5075033;28;20254;-83
2023/04/02 14:04:23;;;;;;;1.60;1.23;;;;;;;;;;5075832;28;20225;-85
2023/04/02 14:07:26;;;;;;;2.00;1.42;;;;;;;;;;5075839;28;20205;-86
2023/04/02 14:10:05;;;;;;;1.08;1.02;;;;;;;;;;5071009;28;20661;-83
2023/04/02 14:12:56;;;;;;;1.80;1.42;;;;;;;;;;5071472;28;20225;-84
2023/04/02 14:15:36;;;;;;;1.30;1.20;;;;;;;;;;5055662;28;20569;-84
2023/04/02 14:18:22;;;;;;;1.90;1.63;;;;;;;;;;5055013;28;20200;-83
2023/04/02 14:20:54;;;;;;;1.17;1.00;;;;;;;;;;5054326;28;20213;-84
2023/04/02 14:23:43;;;;;;;1.30;1.20;;;;;;;;;;5054070;28;20230;-84
2023/04/02 14:26:15;;;;;;;1.33;1.23;;;;;;;;;;5055102;28;20182;-84
2023/04/02 14:28:56;;;;;;;1.77;1.15;;;;;;;;;;5054523;28;20217;-85
2023/04/02 14:31:30;;;;;;;1.30;1.20;;;;;;;;;;5055263;28;20608;-84
2023/04/02 14:34:06;;;;;;;1.50;1.40;;;;;;;;;;5055240;28;20221;-83
2023/04/02 14:36:44;;;;;;;3.97;1.40;;;;;;;;;;5054552;28;20634;-83
2023/04/02 14:39:20;;;;;;;1.65;1.48;;;;;;;;;;5054010;28;20281;-83
2023/04/02 14:41:51;;;;;;;1.83;1.73;;;;;;;;;;5056606;28;20186;-84
2023/04/02 14:44:22;;;;;;;2.78;1.77;;;;;;;;;;5074378;28;20207;-84
2023/04/02 14:46:50;;;;;;;2.13;2.03;;;;;;;;;;5075016;28;20181;-83
2023/04/02 14:49:24;;;;;;;1.75;1.20;;;;;;;;;;5073892;28;20201;-85
2023/04/02 14:51:57;;;;;;;1.75;1.23;;;;;;;;;;5074174;28;20228;-86
2023/04/02 14:54:33;;;;;;;1.35;1.25;;;;;;;;;;5073501;28;20189;-86
2023/04/02 14:57:10;;;;;;;1.92;1.50;;;;;;;;;;5074257;28;20268;-86
2023/04/02 14:59:42;;;;;;;1.05;0.98;;;;;;;;;;5074175;28;20193;-86
2023/04/02 15:02:19;;;;;;;1.38;1.27;;;;;;;;;;5074009;28;20250;-86
2023/04/02 15:04:51;;;;;;;1.17;1.10;;;;;;;;;;5074198;28;20235;-85
2023/04/02 15:07:22;;;;;;;1.65;1.55;;;;;;;;;;5074276;28;20195;-86
2023/04/02 15:09:58;;;;;;;2.20;1.58;;;;;;;;;;5073269;28;20208;-85
2023/04/02 15:12:30;;;;;;;2.60;1.58;;;;;;;;;;5074756;28;20298;-86
2023/04/02 15:15:05;;;;;;;2.38;1.30;;;;;;;;;;5074067;28;20216;-86
2023/04/02 15:17:32;;;;;;;1.52;1.42;;;;;;;;;;5073938;28;20205;-87
2023/04/02 15:20:13;;;;;;;1.25;1.15;;;;;;;;;;5073189;28;20235;-86
2023/04/02 15:22:53;;;;;;;1.10;1.00;;;;;;;;;;5073389;28;20229;-88
2023/04/02 15:25:30;;;;;;;1.50;1.40;;;;;;;;;;5072640;28;20201;-88